Time;durP1;ratioP1;P1;durP2;ratioP2;P2;SDS_P1;SDS_P2;PMS_P1;PMS_P2;Temp;Humidity;BMP_temperature;BMP_pressure;BME280_temperature;BME280_humidity;BME280_pressure;Samples;Min_cycle;Max_cycle;Signal;HPM_P1;HPM_P2
2023/05/24 00:00:10;;;;;;;;;;;;;;;27.61;43.50;94273.69;5049304;28;9360;-60
2023/05/24 00:03:22;;;;;;;;;;;;;;;27.61;43.53;94279.94;5033578;28;7116;-60
2023/05/24 00:06:17;;;;;;;;;;;;;;;27.61;43.59;94273.69;5043354;28;7026;-60
2023/05/24 00:09:00;;;;;;;;;;;;;;;27.60;43.35;94266.66;5022933;28;7035;-59
2023/05/24 00:11:33;;;;;;;;;;;;;;;27.57;43.66;94274.00;5034911;28;6865;-60
2023/05/24 00:14:04;;;;;;;;;;;;;;;27.59;43.71;94276.22;5029182;28;7296;-60
2023/05/24 00:17:20;;;;;;;;;;;;;;;27.58;43.51;94272.72;5034827;28;7873;-60
2023/05/24 00:19:58;;;;;;;;;;;;;;;27.57;43.68;94279.53;4993106;28;8559;-60
2023/05/24 00:22:39;;;;;;;;;;;;;;;27.58;43.70;94280.25;4972706;28;7032;-60
2023/05/24 00:25:31;;;;;;;;;;;;;;;27.56;43.58;94272.50;4976351;28;7133;-60
2023/05/24 00:28:11;;;;;;;;;;;;;;;27.56;43.70;94272.50;4993067;28;7404;-60
2023/05/24 00:30:49;;;;;;;;;;;;;;;27.56;43.35;94268.97;4993406;28;7071;-60
2023/05/24 00:33:15;;;;;;;;;;;;;;;27.55;43.42;94275.78;4976726;28;9176;-60
2023/05/24 00:36:40;;;;;;;;;;;;;;;27.53;43.70;94276.28;4975600;28;7199;-60
2023/05/24 00:39:36;;;;;;;;;;;;;;;27.53;43.61;94276.28;4915967;29;7027;-60
2023/05/24 00:42:12;;;;;;;;;;;;;;;27.53;43.74;94283.88;4915684;29;9096;-60
2023/05/24 00:44:57;;;;;;;;;;;;;;;27.52;43.20;94272.06;5090282;27;7004;-59
2023/05/24 00:47:23;;;;;;;;;;;;;;;27.52;43.73;94274.81;5069347;28;8839;-59
2023/05/24 00:49:51;;;;;;;;;;;;;;;27.52;43.83;94271.31;5071880;28;7191;-59
2023/05/24 00:52:17;;;;;;;;;;;;;;;27.50;43.72;94271.84;5086310;28;7231;-59
2023/05/24 00:54:44;;;;;;;;;;;;;;;27.48;43.76;94276.41;5081149;28;9285;-59
2023/05/24 00:57:12;;;;;;;;;;;;;;;27.50;43.96;94277.38;5076458;28;9052;-59
2023/05/24 01:00:08;;;;;;;;;;;;;;;27.51;43.63;94270.56;5083001;28;9743;-59
2023/05/24 01:03:33;;;;;;;;;;;;;;;27.50;43.62;94271.84;4994479;28;8205;-59
2023/05/24 01:06:06;;;;;;;;;;;;;;;27.49;44.17;94272.38;5007413;28;9027;-59
2023/05/24 01:09:10;;;;;;;;;;;;;;;27.48;43.71;94274.38;5003402;28;7048;-59
2023/05/24 01:12:19;;;;;;;;;;;;;;;27.47;43.54;94278.41;5025830;28;7133;-59
2023/05/24 01:15:01;;;;;;;;;;;;;;;27.45;43.92;94272.66;4998940;28;9574;-59
2023/05/24 01:18:25;;;;;;;;;;;;;;;27.47;43.53;94267.34;5013297;28;7315;-59
2023/05/24 01:21:15;;;;;;;;;;;;;;;27.44;43.79;94262.91;5000033;28;9562;-59
2023/05/24 01:24:26;;;;;;;;;;;;;;;27.45;43.71;94255.34;5023013;28;7298;-59
2023/05/24 01:27:39;;;;;;;;;;;;;;;27.43;43.63;94258.63;4945707;29;9585;-58
2023/05/24 01:30:19;;;;;;;;;;;;;;;27.45;43.69;94255.34;4934972;29;7284;-59
2023/05/24 01:33:20;;;;;;;;;;;;;;;27.44;43.80;94257.38;4934786;29;7041;-59
2023/05/24 01:35:55;;;;;;;;;;;;;;;27.43;44.24;94252.34;4859690;29;7226;-59
2023/05/24 01:38:40;;;;;;;;;;;;;;;27.44;44.02;94251.09;4897689;29;7009;-59
2023/05/24 01:41:26;;;;;;;;;;;;;;;27.42;43.79;94251.63;4912844;29;9122;-59
2023/05/24 01:44:14;;;;;;;;;;;;;;;27.42;43.88;94250.88;4912523;29;8745;-59
2023/05/24 01:47:04;;;;;;;;;;;;;;;27.40;43.54;94248.66;4911904;29;8935;-59
2023/05/24 01:49:48;;;;;;;;;;;;;;;27.44;43.64;94254.63;4915115;29;7299;-59
2023/05/24 01:52:23;;;;;;;;;;;;;;;27.44;43.79;94253.88;4911969;29;7668;-59
2023/05/24 01:55:02;;;;;;;;;;;;;;;27.44;43.56;94251.84;4908851;29;7007;-59
2023/05/24 01:57:57;;;;;;;;;;;;;;;27.45;43.70;94256.09;4896404;29;7048;-59
2023/05/24 02:00:45;;;;;;;;;;;;;;;27.44;43.36;94251.09;4895017;29;7455;-59
2023/05/24 02:03:20;;;;;;;;;;;;;;;27.45;43.29;94250.56;4913863;28;7037;-59
2023/05/24 02:06:22;;;;;;;;;;;;;;;27.43;43.75;94250.34;4953817;28;9042;-59
2023/05/24 02:08:52;;;;;;;;;;;;;;;27.42;43.88;94246.13;4941617;28;8787;-59
2023/05/24 02:11:55;;;;;;;;;;;;;;;27.42;43.81;94246.13;4972433;28;7454;-59
2023/05/24 02:14:49;;;;;;;;;;;;;;;27.42;43.81;94251.63;4944544;28;8660;-59
2023/05/24 02:17:31;;;;;;;;;;;;;;;27.42;43.55;94248.88;4961191;28;7262;-58
2023/05/24 02:20:23;;;;;;;;;;;;;;;27.41;43.68;94246.63;4953202;28;7027;-59
2023/05/24 02:23:20;;;;;;;;;;;;;;;27.39;43.89;94247.16;4939796;28;7573;-59
2023/05/24 02:26:05;;;;;;;;;;;;;;;27.40;43.78;94251.41;4945841;28;7000;-59
2023/05/24 02:28:32;;;;;;;;;;;;;;;27.38;43.64;94240.13;4956067;28;7723;-59
2023/05/24 02:31:09;;;;;;;;;;;;;;;27.40;43.48;94243.13;4939981;28;7037;-59
2023/05/24 02:33:50;;;;;;;;;;;;;;;27.39;43.31;94249.16;4929960;29;7214;-59
2023/05/24 02:36:31;;;;;;;;;;;;;;;27.39;43.90;94241.63;4959511;28;8788;-59
2023/05/24 02:39:25;;;;;;;;;;;;;;;27.38;43.72;94244.94;4954551;28;7219;-59
2023/05/24 02:41:53;;;;;;;;;;;;;;;27.36;43.66;94242.66;4935336;28;7346;-59
2023/05/24 02:44:36;;;;;;;;;;;;;;;27.36;43.44;94241.94;4961124;28;7246;-59
2023/05/24 02:47:05;;;;;;;;;;;;;;;27.38;43.87;94231.13;4975211;28;7714;-59
2023/05/24 02:49:53;;;;;;;;;;;;;;;27.40;43.57;94243.13;5007770;28;7374;-59
2023/05/24 02:52:35;;;;;;;;;;;;;;;27.41;43.76;94232.81;5006997;28;9236;-59
2023/05/24 02:55:17;;;;;;;;;;;;;;;27.43;43.46;94235.78;5010263;28;7308;-59
2023/05/24 02:57:55;;;;;;;;;;;;;;;27.45;43.75;94233.25;5012151;28;7024;-59
2023/05/24 03:00:50;;;;;;;;;;;;;;;27.47;43.67;94236.97;5011512;28;8303;-58
2023/05/24 03:03:18;;;;;;;;;;;;;;;27.45;43.57;94236.75;4974849;28;7483;-59
2023/05/24 03:06:07;;;;;;;;;;;;;;;27.45;43.61;94231.22;4986390;28;8760;-58
2023/05/24 03:08:40;;;;;;;;;;;;;;;27.45;43.37;94228.47;4957949;28;9458;-59
2023/05/24 03:11:06;;;;;;;;;;;;;;;27.45;43.64;94238.75;4984978;28;7441;-59
2023/05/24 03:13:44;;;;;;;;;;;;;;;27.47;43.64;94231.44;4957949;28;7004;-59
2023/05/24 03:16:44;;;;;;;;;;;;;;;27.48;43.45;94232.94;4956833;28;9106;-58
2023/05/24 03:19:29;;;;;;;;;;;;;;;27.47;43.52;94228.69;4955138;28;7030;-59
2023/05/24 03:22:12;;;;;;;;;;;;;;;27.48;43.54;94235.72;4939219;28;7520;-59
2023/05/24 03:25:07;;;;;;;;;;;;;;;27.48;43.48;94241.25;4955016;28;8854;-59
2023/05/24 03:27:50;;;;;;;;;;;;;;;27.45;43.77;94242.28;4955046;28;7224;-59
2023/05/24 03:30:57;;;;;;;;;;;;;;;27.48;43.51;94246.75;4942781;28;8805;-59
2023/05/24 03:33:23;;;;;;;;;;;;;;;27.49;43.22;94247.50;4952927;28;9105;-59
2023/05/24 03:36:03;;;;;;;;;;;;;;;27.48;43.25;94251.53;4953255;28;9070;-59
2023/05/24 03:39:03;;;;;;;;;;;;;;;27.47;43.50;94248.03;4950593;28;9026;-59
2023/05/24 03:41:39;;;;;;;;;;;;;;;27.45;43.39;94247.81;4996965;28;9767;-59
2023/05/24 03:44:35;;;;;;;;;;;;;;;27.47;43.58;94247.28;4964697;28;7544;-59
2023/05/24 03:47:15;;;;;;;;;;;;;;;27.43;43.60;94247.59;4969715;28;7063;-59
2023/05/24 03:49:51;;;;;;;;;;;;;;;27.43;43.35;94258.63;4991232;28;9131;-59
2023/05/24 03:52:48;;;;;;;;;;;;;;;27.46;43.61;94263.13;4975056;28;7235;-59
2023/05/24 03:55:29;;;;;;;;;;;;;;;27.42;43.73;94259.91;4983281;28;9665;-59
2023/05/24 03:58:16;;;;;;;;;;;;;;;27.42;43.36;94261.94;5006394;28;9411;-59
2023/05/24 04:01:07;;;;;;;;;;;;;;;27.45;43.47;94263.63;4995984;28;7397;-59
2023/05/24 04:04:03;;;;;;;;;;;;;;;27.44;43.48;94262.91;5011684;28;7119;-59
2023/05/24 04:06:58;;;;;;;;;;;;;;;27.43;43.42;94257.88;5009194;28;7278;-59
2023/05/24 04:09:51;;;;;;;;;;;;;;;27.43;43.37;94257.88;4967117;28;7249;-59
2023/05/24 04:12:16;;;;;;;;;;;;;;;27.39;43.52;94254.69;4981613;28;7275;-59
2023/05/24 04:14:42;;;;;;;;;;;;;;;27.41;43.37;94263.94;4986397;28;9078;-59
2023/05/24 04:17:08;;;;;;;;;;;;;;;27.42;43.54;94262.69;4971250;28;7226;-59
2023/05/24 04:19:34;;;;;;;;;;;;;;;27.41;43.02;94263.94;4987692;28;9534;-59
2023/05/24 04:22:38;;;;;;;;;;;;;;;27.41;43.57;94260.44;4976241;28;9058;-59
2023/05/24 04:25:14;;;;;;;;;;;;;;;27.39;43.67;94258.19;4995305;28;7275;-59
2023/05/24 04:27:50;;;;;;;;;;;;;;;27.38;43.43;94250.44;4980367;28;9378;-59
2023/05/24 04:30:30;;;;;;;;;;;;;;;27.37;43.47;94238.66;5005175;28;7030;-59
2023/05/24 04:32:56;;;;;;;;;;;;;;;27.38;43.32;94248.41;4999484;28;7769;-59
2023/05/24 04:35:24;;;;;;;;;;;;;;;27.39;43.72;94251.94;4981240;28;8697;-59
2023/05/24 04:37:56;;;;;;;;;;;;;;;27.38;43.81;94251.16;4978852;28;7121;-59
2023/05/24 04:40:22;;;;;;;;;;;;;;;27.39;43.64;94251.94;4990824;28;7171;-59
2023/05/24 04:42:48;;;;;;;;;;;;;;;27.38;43.52;94256.69;4975691;28;9312;-59
2023/05/24 04:45:16;;;;;;;;;;;;;;;27.37;43.49;94260.00;5011169;28;7499;-59
2023/05/24 04:47:59;;;;;;;;;;;;;;;27.33;43.60;94260.28;5077375;28;7218;-59
2023/05/24 04:50:37;;;;;;;;;;;;;;;27.31;43.58;94254.53;5055733;28;7450;-58
2023/05/24 04:53:14;;;;;;;;;;;;;;;27.30;43.47;94255.78;5064766;28;9024;-59
2023/05/24 04:55:41;;;;;;;;;;;;;;;27.28;43.83;94261.09;5048051;28;7072;-59
2023/05/24 04:58:12;;;;;;;;;;;;;;;27.26;43.82;94258.13;5048668;28;7467;-59
2023/05/24 05:00:38;;;;;;;;;;;;;;;27.25;43.60;94262.13;5049728;28;7027;-59
2023/05/24 05:03:19;;;;;;;;;;;;;;;27.22;43.86;94257.69;5052024;28;7029;-59
2023/05/24 05:06:11;;;;;;;;;;;;;;;27.26;43.92;94255.34;5035664;28;7509;-59
2023/05/24 05:08:44;;;;;;;;;;;;;;;27.24;43.53;94255.13;5041438;28;7202;-59
2023/05/24 05:11:13;;;;;;;;;;;;;;;27.25;43.65;94264.91;5042585;28;7282;-59
2023/05/24 05:13:40;;;;;;;;;;;;;;;27.24;43.54;94263.44;5056971;28;7245;-59
2023/05/24 05:16:23;;;;;;;;;;;;;;;27.23;44.09;94261.91;5049009;28;7031;-59
2023/05/24 05:19:11;;;;;;;;;;;;;;;27.24;44.06;94268.19;5044641;28;7211;-59
2023/05/24 05:21:42;;;;;;;;;;;;;;;27.22;43.98;94265.97;5042925;28;7034;-59
2023/05/24 05:24:35;;;;;;;;;;;;;;;27.22;43.74;94265.97;5063019;28;7183;-58
2023/05/24 05:27:16;;;;;;;;;;;;;;;27.18;44.16;94273.81;4950710;29;7011;-59
2023/05/24 05:29:49;;;;;;;;;;;;;;;27.21;44.22;94275.50;4934588;28;7078;-59
2023/05/24 05:32:25;;;;;;;;;;;;;;;27.20;44.02;94274.03;4953141;28;8636;-59
2023/05/24 05:35:12;;;;;;;;;;;;;;;27.20;44.41;94274.03;4953208;28;7033;-59
2023/05/24 05:38:01;;;;;;;;;;;;;;;27.23;44.01;94277.75;4958328;28;7037;-59
2023/05/24 05:41:00;;;;;;;;;;;;;;;27.23;43.98;94277.75;4943462;28;7258;-59
2023/05/24 05:43:26;;;;;;;;;;;;;;;27.21;43.63;94270.00;4944049;28;9041;-59
2023/05/24 05:45:54;;;;;;;;;;;;;;;27.18;44.13;94281.34;4952578;28;7485;-59
2023/05/24 05:52:05;;;;;;;;;;;;;;;27.23;44.31;94278.50;4943389;28;9045;-59
2023/05/24 05:58:02;;;;;;;;;;;;;;;27.12;44.44;94278.66;4931104;29;7063;-60
2023/05/24 06:00:39;;;;;;;;;;;;;;;27.12;44.63;94278.66;4934046;29;7122;-59
2023/05/24 06:03:10;;;;;;;;;;;;;;;27.15;44.17;94282.38;4947184;28;7109;-59
2023/05/24 06:05:45;;;;;;;;;;;;;;;27.16;44.18;94284.63;4978345;28;7264;-60
2023/05/24 06:08:33;;;;;;;;;;;;;;;27.17;44.34;94290.88;4992541;28;7024;-59
2023/05/24 06:11:18;;;;;;;;;;;;;;;27.16;44.09;94290.16;4959838;28;8879;-59
2023/05/24 06:13:57;;;;;;;;;;;;;;;27.17;44.19;94285.38;4972307;28;7022;-59
2023/05/24 06:16:53;;;;;;;;;;;;;;;27.14;44.15;94289.94;4975734;28;8948;-59
2023/05/24 06:19:39;;;;;;;;;;;;;;;27.13;44.05;94293.19;4952612;28;7046;-59
2023/05/24 06:22:05;;;;;;;;;;;;;;;27.13;44.22;94290.44;4943980;28;7548;-59
2023/05/24 06:25:06;;;;;;;;;;;;;;;27.14;43.74;94287.19;4921458;29;7064;-59
2023/05/24 06:27:32;;;;;;;;;;;;;;;27.11;43.96;94285.44;4937313;29;7186;-59
2023/05/24 06:30:02;;;;;;;;;;;;;;;27.12;44.06;94294.50;4921012;28;9405;-59
2023/05/24 06:33:15;;;;;;;;;;;;;;;27.11;43.93;94299.25;4929080;28;7280;-59
2023/05/24 06:35:50;;;;;;;;;;;;;;;27.12;43.51;94297.97;5003785;28;9167;-59
2023/05/24 06:38:49;;;;;;;;;;;;;;;27.11;43.99;94310.31;5014814;28;7034;-59
2023/05/24 06:41:20;;;;;;;;;;;;;;;27.08;43.71;94297.53;4971201;28;9160;-59
2023/05/24 06:43:46;;;;;;;;;;;;;;;27.12;44.43;94311.06;4958380;28;6856;-59
2023/05/24 06:46:31;;;;;;;;;;;;;;;27.12;43.69;94305.53;4974909;28;9122;-59
2023/05/24 06:49:13;;;;;;;;;;;;;;;27.11;43.68;94298.50;4974331;28;9201;-59
2023/05/24 06:51:39;;;;;;;;;;;;;;;27.10;43.94;94302.53;4958925;28;9482;-59
2023/05/24 06:54:05;;;;;;;;;;;;;;;27.06;43.93;94302.84;4956850;28;7260;-59
2023/05/24 06:56:34;;;;;;;;;;;;;;;27.09;43.71;94301.78;4996874;28;9119;-59
2023/05/24 06:59:00;;;;;;;;;;;;;;;27.11;43.63;94309.53;5007997;28;7333;-59
2023/05/24 07:01:41;;;;;;;;;;;;;;;27.09;43.90;94306.56;5015900;28;9023;-59
2023/05/24 07:04:10;;;;;;;;;;;;;;;27.11;43.27;94315.81;4991892;28;9474;-59
2023/05/24 07:06:39;;;;;;;;;;;;;;;27.12;43.72;94317.31;4996903;28;9012;-59
2023/05/24 07:09:05;;;;;;;;;;;;;;;27.11;43.65;94307.53;4982685;28;9708;-59
2023/05/24 07:11:47;;;;;;;;;;;;;;;27.09;43.61;94307.31;5008705;28;7233;-59
2023/05/24 07:14:32;;;;;;;;;;;;;;;27.11;43.79;94315.06;5004259;28;8795;-59
2023/05/24 07:17:14;;;;;;;;;;;;;;;27.10;43.67;94314.31;5007515;28;9274;-59
2023/05/24 07:19:58;;;;;;;;;;;;;;;27.12;44.20;94311.78;5052565;28;7047;-59
2023/05/24 07:22:45;;;;;;;;;;;;;;;27.11;43.57;94315.81;5066661;28;7433;-59
2023/05/24 07:25:18;;;;;;;;;;;;;;;27.09;43.70;94312.09;5053498;28;8974;-59
2023/05/24 07:27:55;;;;;;;;;;;;;;;27.11;43.33;94315.81;5052566;28;9497;-60
2023/05/24 07:30:38;;;;;;;;;;;;;;;27.15;43.97;94315.50;5036172;28;8828;-59
2023/05/24 07:33:25;;;;;;;;;;;;;;;27.17;43.89;94319.25;5034518;28;8953;-60
2023/05/24 07:36:03;;;;;;;;;;;;;;;27.17;43.58;94324.78;5050555;28;9138;-59
2023/05/24 07:38:30;;;;;;;;;;;;;;;27.18;43.68;94325.53;5048907;28;7274;-59
2023/05/24 07:41:07;;;;;;;;;;;;;;;27.14;44.19;94314.78;5053139;28;8486;-59
2023/05/24 07:43:33;;;;;;;;;;;;;;;27.10;43.85;94303.28;5086314;28;7216;-59
2023/05/24 07:46:07;;;;;;;;;;;;;;;27.17;43.81;94313.72;5081525;28;9493;-59
2023/05/24 07:48:38;;;;;;;;;;;;;;;27.18;43.71;94314.47;5042434;28;7536;-60
2023/05/24 07:51:16;;;;;;;;;;;;;;;27.14;43.59;94306.50;5048284;28;7679;-60
2023/05/24 07:53:54;;;;;;;;;;;;;;;27.11;44.07;94302.03;5035786;28;7045;-59
2023/05/24 07:56:40;;;;;;;;;;;;;;;27.11;44.45;94310.31;5059061;28;7452;-59
2023/05/24 07:59:06;;;;;;;;;;;;;;;27.14;43.90;94308.50;5034145;28;7531;-59
2023/05/24 08:01:35;;;;;;;;;;;;;;;27.11;44.10;94307.53;5050508;28;7229;-59
2023/05/24 08:04:07;;;;;;;;;;;;;;;27.13;44.13;94310.53;5041364;28;7162;-59
2023/05/24 08:06:36;;;;;;;;;;;;;;;27.14;44.27;94309.25;5041408;28;7290;-59
2023/05/24 08:09:03;;;;;;;;;;;;;;;27.14;44.17;94312.03;5040035;28;9105;-59
2023/05/24 08:12:20;;;;;;;;;;;;;;;27.13;44.16;94318.06;5050238;28;9099;-59
2023/05/24 08:14:46;;;;;;;;;;;;;;;27.11;44.07;94307.53;5022913;28;7040;-59
2023/05/24 08:17:14;;;;;;;;;;;;;;;27.14;44.42;94314.78;5015234;28;7562;-59
2023/05/24 08:19:51;;;;;;;;;;;;;;;27.13;43.74;94307.00;5032684;28;9103;-59
2023/05/24 08:22:42;;;;;;;;;;;;;;;27.14;44.06;94314.78;5030764;28;7021;-59
2023/05/24 08:25:26;;;;;;;;;;;;;;;27.09;44.19;94312.84;5048858;28;7040;-59
2023/05/24 08:27:52;;;;;;;;;;;;;;;27.10;44.17;94324.63;5045464;28;7107;-59
2023/05/24 08:30:58;;;;;;;;;;;;;;;27.12;44.20;94324.84;5031934;28;9128;-60
2023/05/24 08:33:25;;;;;;;;;;;;;;;27.10;44.03;94324.63;5028883;28;7064;-60
2023/05/24 08:36:15;;;;;;;;;;;;;;;27.10;44.08;94325.34;5036378;28;7021;-60
2023/05/24 08:38:51;;;;;;;;;;;;;;;27.07;44.38;94329.19;5020718;28;7275;-60
2023/05/24 08:41:27;;;;;;;;;;;;;;;27.09;44.07;94334.94;5014619;28;6980;-60
2023/05/24 08:44:00;;;;;;;;;;;;;;;27.10;44.25;94335.69;5021614;28;7227;-60
2023/05/24 08:46:30;;;;;;;;;;;;;;;27.11;44.00;94326.13;5016181;28;9092;-59
2023/05/24 08:49:10;;;;;;;;;;;;;;;27.06;44.41;94327.69;5015698;28;7065;-60
2023/05/24 08:52:11;;;;;;;;;;;;;;;27.10;44.01;94333.63;5046717;28;7257;-60
2023/05/24 08:54:52;;;;;;;;;;;;;;;27.11;44.17;94331.63;5039081;28;9095;-59
2023/05/24 08:57:26;;;;;;;;;;;;;;;27.11;44.60;94332.38;5051630;28;7244;-60
2023/05/24 08:59:56;;;;;;;;;;;;;;;27.07;44.54;94331.94;5065370;28;9044;-59
2023/05/24 09:02:22;;;;;;;;;;;;;;;27.07;44.62;94331.94;5076856;28;7253;-59
2023/05/24 09:04:52;;;;;;;;;;;;;;;27.07;44.24;94337.47;5066108;28;7264;-59
2023/05/24 09:07:25;;;;;;;;;;;;;;;27.08;44.49;94333.41;5087996;28;7027;-59
2023/05/24 09:09:59;;;;;;;;;;;;;;;27.09;44.82;94334.16;5065625;28;7135;-59
2023/05/24 09:12:47;;;;;;;;;;;;;;;27.10;44.83;94333.63;5056169;28;7293;-59
2023/05/24 09:15:33;;;;;;;;;;;;;;;27.13;44.94;94340.13;5051156;28;7290;-59
2023/05/24 09:18:00;;;;;;;;;;;;;;;27.15;45.17;94338.34;5054145;28;7116;-59
2023/05/24 09:20:32;;;;;;;;;;;;;;;27.16;45.35;94345.38;5056883;28;8904;-59
2023/05/24 09:23:06;;;;;;;;;;;;;;;27.15;44.91;94340.38;5053852;28;7056;-60
2023/05/24 09:25:32;;;;;;;;;;;;;;;27.13;44.70;94348.41;5063620;28;7021;-59
2023/05/24 09:28:05;;;;;;;;;;;;;;;27.09;44.96;94343.22;5059321;28;9317;-59
2023/05/24 09:31:11;;;;;;;;;;;;;;;27.08;44.82;94343.75;5072893;28;7102;-59
2023/05/24 09:33:42;;;;;;;;;;;;;;;27.08;45.28;94347.22;4976596;28;7233;-59
2023/05/24 09:36:40;;;;;;;;;;;;;;;27.07;45.38;94348.50;4960270;28;7214;-60
2023/05/24 09:39:12;;;;;;;;;;;;;;;27.08;44.98;94354.78;4921696;29;9011;-59
2023/05/24 09:42:07;;;;;;;;;;;;;;;27.07;45.36;94353.28;4920502;29;7596;-59
2023/05/24 09:44:33;;;;;;;;;;;;;;;27.00;45.26;94335.28;4865046;29;9052;-59
2023/05/24 09:47:27;;;;;;;;;;;;;;;27.06;45.22;94349.75;4861908;29;7061;-59
2023/05/24 09:50:05;;;;;;;;;;;;;;;27.05;45.91;94345.53;4860981;29;8749;-59
2023/05/24 09:52:57;;;;;;;;;;;;;;;27.07;45.39;94356.78;4867488;29;9153;-59
2023/05/24 09:55:26;;;;;;;;;;;;;;;27.04;45.25;94352.31;4865357;29;7275;-59
2023/05/24 09:58:02;;;;;;;;;;;;;;;27.06;45.55;94358.03;4881248;29;7647;-59
2023/05/24 10:00:40;;;;;;;;;;;;;;;27.05;45.53;94362.09;4872972;29;9056;-59
2023/05/24 10:03:09;;;;;;;;;;;;;;;27.04;45.74;94349.53;4865537;29;9058;-59
2023/05/24 10:06:03;;;;;;;;;;;;;;;27.05;45.44;94361.34;4955953;28;7476;-59
2023/05/24 10:08:33;;;;;;;;;;;;;;;27.03;45.62;94353.59;4949336;28;9164;-60
2023/05/24 10:11:05;;;;;;;;;;;;;;;27.04;45.30;94355.06;4934056;29;7026;-59
2023/05/24 10:13:37;;;;;;;;;;;;;;;27.04;45.58;94355.06;4958614;28;7238;-59
2023/05/24 10:16:04;;;;;;;;;;;;;;;27.01;45.37;94361.63;4948140;28;7060;-59
2023/05/24 10:18:53;;;;;;;;;;;;;;;27.00;45.21;94360.13;4987152;28;9183;-59
2023/05/24 10:21:41;;;;;;;;;;;;;;;27.01;45.35;94360.88;5028441;28;9048;-59
2023/05/24 10:24:09;;;;;;;;;;;;;;;27.04;45.38;94368.09;5055803;28;9077;-59
2023/05/24 10:26:38;;;;;;;;;;;;;;;27.02;45.25;94365.13;5062029;28;9258;-59
2023/05/24 10:29:32;;;;;;;;;;;;;;;27.04;45.38;94366.09;5065163;28;7045;-59
2023/05/24 10:32:03;;;;;;;;;;;;;;;27.03;45.12;94367.38;5068480;28;7060;-59
2023/05/24 10:34:30;;;;;;;;;;;;;;;27.01;45.37;94366.41;5079061;28;6920;-59
2023/05/24 10:36:57;;;;;;;;;;;;;;;27.03;45.44;94367.38;5051930;28;9079;-59
2023/05/24 10:39:34;;;;;;;;;;;;;;;27.03;45.45;94370.16;5062669;28;7322;-59
2023/05/24 10:42:16;;;;;;;;;;;;;;;27.03;45.44;94369.41;5051765;28;7252;-59
2023/05/24 10:44:43;;;;;;;;;;;;;;;27.03;45.62;94364.63;5055027;28;7795;-59
2023/05/24 10:47:30;;;;;;;;;;;;;;;27.03;45.58;94363.88;5044551;28;8930;-59
2023/05/24 10:50:17;;;;;;;;;;;;;;;27.01;45.46;94364.41;5067786;28;8164;-59
2023/05/24 10:53:18;;;;;;;;;;;;;;;27.02;45.63;94365.13;5045538;28;7151;-59
2023/05/24 10:59:38;;;;;;;;;;;;;;;26.99;45.84;94375.19;4992557;28;7639;-61
2023/05/24 11:02:18;;;;;;;;;;;;;;;27.02;46.31;94370.66;4977752;28;7141;-61
2023/05/24 11:05:04;;;;;;;;;;;;;;;26.99;46.29;94366.19;4993824;28;7105;-61
2023/05/24 11:08:08;;;;;;;;;;;;;;;26.99;46.05;94364.16;4977862;28;7246;-60
2023/05/24 11:11:20;;;;;;;;;;;;;;;27.02;45.89;94367.88;4977362;28;7123;-61
2023/05/24 11:14:08;;;;;;;;;;;;;;;27.02;46.08;94370.66;4983290;28;7133;-61
2023/05/24 11:16:45;;;;;;;;;;;;;;;27.00;46.21;94365.66;4968748;28;9277;-61
2023/05/24 11:19:23;;;;;;;;;;;;;;;27.01;46.38;94363.66;4960379;28;7426;-60
2023/05/24 11:21:52;;;;;;;;;;;;;;;27.03;46.10;94361.13;4980515;28;7281;-60
2023/05/24 11:24:29;;;;;;;;;;;;;;;27.02;45.99;94360.34;4981688;28;8721;-61
2023/05/24 11:27:20;;;;;;;;;;;;;;;27.01;46.21;94372.69;4976103;28;9019;-60
2023/05/24 11:29:52;;;;;;;;;;;;;;;27.01;46.09;94364.41;4982419;28;7126;-61
2023/05/24 11:32:49;;;;;;;;;;;;;;;27.00;45.93;94364.91;4977303;28;9354;-61
2023/05/24 11:35:18;;;;;;;;;;;;;;;26.99;46.28;94363.44;4986576;28;7042;-61
2023/05/24 11:38:21;;;;;;;;;;;;;;;27.02;46.16;94373.41;4977288;28;9437;-61
2023/05/24 11:40:58;;;;;;;;;;;;;;;27.02;46.41;94371.41;4977171;28;8748;-61
2023/05/24 11:43:56;;;;;;;;;;;;;;;27.02;46.21;94365.88;4977343;28;9136;-61
2023/05/24 11:46:31;;;;;;;;;;;;;;;27.00;45.79;94365.66;4875473;29;9071;-61
2023/05/24 11:49:12;;;;;;;;;;;;;;;26.96;46.20;94367.97;4950574;28;7177;-61
2023/05/24 11:52:11;;;;;;;;;;;;;;;26.94;46.16;94373.25;4961737;28;6865;-61
2023/05/24 11:54:55;;;;;;;;;;;;;;;26.94;45.98;94373.25;4938872;28;9111;-61
2023/05/24 11:57:55;;;;;;;;;;;;;;;26.91;46.07;94374.28;4952633;28;9477;-61
2023/05/24 12:00:31;;;;;;;;;;;;;;;26.92;46.03;94377.81;4935419;29;9777;-61
2023/05/24 12:03:03;;;;;;;;;;;;;;;26.86;46.15;94367.56;4953808;28;6963;-61
2023/05/24 12:05:53;;;;;;;;;;;;;;;26.90;45.95;94373.53;4950856;28;7130;-60
2023/05/24 12:08:37;;;;;;;;;;;;;;;26.87;46.29;94365.56;4942405;28;7169;-61
2023/05/24 12:11:14;;;;;;;;;;;;;;;26.85;45.93;94365.34;4938147;28;7119;-61
2023/05/24 12:14:32;;;;;;;;;;;;;;;26.86;45.73;94373.09;4938892;28;9224;-61
2023/05/24 12:17:00;;;;;;;;;;;;;;;26.86;45.66;94367.56;4903141;29;7514;-61
2023/05/24 12:19:36;;;;;;;;;;;;;;;26.87;45.72;94371.84;4897699;29;8984;-61
2023/05/24 12:22:08;;;;;;;;;;;;;;;26.89;45.74;94368.53;4948704;28;7278;-61
2023/05/24 12:24:36;;;;;;;;;;;;;;;26.88;45.67;94373.31;4973553;28;9015;-61
2023/05/24 12:27:14;;;;;;;;;;;;;;;26.84;45.96;94369.34;4981140;28;9210;-61
2023/05/24 12:29:41;;;;;;;;;;;;;;;26.86;45.44;94380.66;5000535;28;6994;-61
2023/05/24 12:32:18;;;;;;;;;;;;;;;26.86;45.80;94377.88;4993143;28;9019;-61
2023/05/24 12:34:54;;;;;;;;;;;;;;;26.84;45.94;94386.66;4992394;28;7675;-61
2023/05/24 12:37:30;;;;;;;;;;;;;;;26.83;45.90;94376.91;4970581;28;8949;-61
2023/05/24 12:40:22;;;;;;;;;;;;;;;26.81;45.55;94375.94;4973953;28;7138;-61
2023/05/24 12:43:17;;;;;;;;;;;;;;;26.80;45.70;94379.94;4959577;28;8414;-61
2023/05/24 12:45:46;;;;;;;;;;;;;;;26.79;45.54;94368.19;4971967;28;7073;-61
2023/05/24 12:48:14;;;;;;;;;;;;;;;26.80;45.68;94371.66;5009171;28;9055;-61
2023/05/24 12:50:44;;;;;;;;;;;;;;;26.82;45.55;94374.66;4992424;28;7300;-61
2023/05/24 12:53:23;;;;;;;;;;;;;;;26.81;45.75;94364.88;5026057;28;7029;-61
2023/05/24 12:55:54;;;;;;;;;;;;;;;26.80;45.50;94369.66;5051845;28;6967;-61
2023/05/24 12:58:37;;;;;;;;;;;;;;;26.84;45.52;94369.34;5052050;28;7130;-61
2023/05/24 13:01:32;;;;;;;;;;;;;;;26.86;45.56;94380.66;5067722;28;7495;-61
2023/05/24 13:04:19;;;;;;;;;;;;;;;26.80;45.38;94369.66;5051662;28;7278;-61
2023/05/24 13:06:54;;;;;;;;;;;;;;;26.82;45.38;94366.38;5065370;28;7136;-61
2023/05/24 13:09:24;;;;;;;;;;;;;;;26.82;45.00;94371.88;5046251;28;7053;-61
2023/05/24 13:11:58;;;;;;;;;;;;;;;26.80;45.49;94363.38;5044835;28;7306;-61
2023/05/24 13:14:24;;;;;;;;;;;;;;;26.81;45.25;94359.38;5061604;28;7067;-61
2023/05/24 13:16:50;;;;;;;;;;;;;;;26.80;45.75;94360.63;5071655;28;7490;-60
2023/05/24 13:19:16;;;;;;;;;;;;;;;26.79;45.88;94365.41;5046269;28;9202;-61
2023/05/24 13:21:48;;;;;;;;;;;;;;;26.78;45.31;94358.38;5069663;28;8689;-61
2023/05/24 13:24:54;;;;;;;;;;;;;;;26.83;45.73;94365.13;5045940;28;7086;-61
2023/05/24 13:27:31;;;;;;;;;;;;;;;26.84;45.29;94358.31;5074504;28;7430;-61
2023/05/24 13:29:58;;;;;;;;;;;;;;;26.99;45.59;94357.91;5086103;28;9142;-60
2023/05/24 13:32:26;;;;;;;;;;;;;;;27.04;45.21;94352.31;5050950;28;8786;-61
2023/05/24 13:35:05;;;;;;;;;;;;;;;27.09;45.42;94356.25;5049209;28;7056;-61
2023/05/24 13:37:41;;;;;;;;;;;;;;;27.06;44.54;94352.53;5050682;28;7101;-61
2023/05/24 13:40:12;;;;;;;;;;;;;;;27.12;44.90;94352.47;5063391;28;7235;-61
2023/05/24 13:42:39;;;;;;;;;;;;;;;27.13;44.89;94354.69;5049023;28;9522;-61
2023/05/24 13:45:06;;;;;;;;;;;;;;;27.11;45.52;94353.72;5065097;28;7236;-60
2023/05/24 13:47:32;;;;;;;;;;;;;;;27.09;44.71;94351.50;5052440;28;7254;-61
2023/05/24 13:50:00;;;;;;;;;;;;;;;27.08;44.72;94355.50;5050235;28;7458;-61
2023/05/24 13:52:35;;;;;;;;;;;;;;;27.03;44.80;94356.34;5049494;28;8761;-61
2023/05/24 13:55:28;;;;;;;;;;;;;;;27.04;44.68;94365.34;5056427;28;7218;-61
2023/05/24 13:58:09;;;;;;;;;;;;;;;27.02;44.66;94370.66;5050732;28;7122;-60
2023/05/24 14:00:38;;;;;;;;;;;;;;;27.01;44.60;94361.63;5081466;28;7112;-61
2023/05/24 14:03:08;;;;;;;;;;;;;;;27.01;44.80;94360.88;5048151;28;8974;-61
2023/05/24 14:05:36;;;;;;;;;;;;;;;26.99;45.12;94353.09;5049051;28;8379;-60
2023/05/24 14:08:05;;;;;;;;;;;;;;;27.00;45.20;94359.38;5053000;28;7091;-60
2023/05/24 14:10:35;;;;;;;;;;;;;;;26.97;44.88;94354.91;5053843;28;7034;-60
2023/05/24 14:13:05;;;;;;;;;;;;;;;26.98;45.25;94353.63;5052967;28;7263;-60
2023/05/24 14:15:33;;;;;;;;;;;;;;;26.97;44.71;94347.38;5074551;28;8796;-60